Meteo Giornale » Osservazioni meteo Italia » Reggio Calabria

ore: 13:50 - Osservazioni Meteo Reggio Calabria
Lat. 38° 4' N Lon. 15° 39' E Alt. 11 metri s.l.m.

sereno Europe/Rome

18 °C

Sereno

Temp. 24 Ore

10 °C

18 °C

Sud

24 Km/h

Dew point 12 °C

Umidità 67 %

Visibilità  10 Km

Il sole sorge alle ore 06:31

Il sole tramonta alle ore 17:49

Data e Ora Cielo e Fenomeni T °C DP °C Um. % Pres. hPa Vis. km Vento km/h
Oggi h: 13:50 sereno Sereno 18 12 67 1009 10 S 24
Oggi h: 13:20 poco_nuvoloso Poco Nuvoloso 18 12 67 1010 10 S 22.2
Oggi h: 12:50 poco_nuvoloso Poco Nuvoloso 18 13 72 1010 10 S 27.8
Oggi h: 12:20 poco_nuvoloso Poco Nuvoloso 18 13 72 1010 10 S 27.8
Oggi h: 11:50 nuvoloso Nuvoloso 18 13 72 1011 10 S 27.8
Oggi h: 11:20 nuvoloso Nuvoloso 17 12 72 1010 10 S 29.6
Oggi h: 10:50 poco_nuvoloso Poco Nuvoloso 17 12 72 1011 10 S 25.9
Oggi h: 10:20 poco_nuvoloso Poco Nuvoloso 17 12 72 1011 10 S 22.2
Oggi h: 09:50 sereno Sereno 17 12 72 1011 10 S/SE 25.9
Oggi h: 09:20 sereno Sereno 17 11 67 1011 10 S/SE 24
Oggi h: 08:50 poco_nuvoloso Poco Nuvoloso 17 11 67 1011 10 S/SE 22.2
Oggi h: 08:20 molto_nuvoloso Molto Nuvoloso 16 10 67 1011 10 SE 25.9
Oggi h: 07:50 coperto_pioggia Pioggia Debole 16 10 67 1010 10 SE 25.9
Oggi h: 07:20 molto_nuvoloso Molto Nuvoloso 15 10 72 1010 10 SE 20.3
Oggi h: 06:50 molto_nuvoloso Molto Nuvoloso 15 10 72 1010 10 S/SE 14.8
Oggi h: 06:20 molto_nuvoloso Molto Nuvoloso 15 10 72 1010 10 S/SE 20.3
Oggi h: 05:50 molto_nuvoloso Molto Nuvoloso 15 9 67 1010 10 S/SE 20.3
Oggi h: 05:20 molto_nuvoloso Molto Nuvoloso 15 9 67 1010 10 S 16.7
Oggi h: 04:50 molto_nuvoloso Molto Nuvoloso 14 6 58 1010 10 S/SE 13
Oggi h: 04:20 molto_nuvoloso Molto Nuvoloso 14 4 50 1010 10 S 11.1
Oggi h: 03:50 molto_nuvoloso Molto Nuvoloso 14 7 62 1010 10 S 20.3
Oggi h: 03:20 molto_nuvoloso Molto Nuvoloso 14 8 67 1010 10 S 22.2
Oggi h: 02:50 molto_nuvoloso Molto Nuvoloso 14 9 71 1010 10 S/SO 16.7
Oggi h: 02:20 molto_nuvoloso Molto Nuvoloso 14 8 67 1010 10 S/SO 18.5
Oggi h: 01:50 molto_nuvoloso Molto Nuvoloso 13 8 71 1010 10 S 9.3
Oggi h: 01:20 molto_nuvoloso Molto Nuvoloso 12 8 76 1011 10 N 3.7
Oggi h: 00:50 molto_nuvoloso Molto Nuvoloso 12 8 76 1011 10 E/SE 7.4
Oggi h: 00:20 molto_nuvoloso Molto Nuvoloso 12 7 71 1011 10 N 5.5
Ieri h: 23:50 poco_nuvoloso Poco Nuvoloso 11 7 76 1011 10 N 5.5
Ieri h: 23:20 molto_nuvoloso Molto Nuvoloso 12 6 66 1011 10 N 5.5
Ieri h: 22:50 molto_nuvoloso Molto Nuvoloso 11 6 71 1011 10 N 5.5
Ieri h: 22:20 molto_nuvoloso Molto Nuvoloso 11 5 66 1011 10 E/NE 7.4
Ieri h: 21:50 nuvoloso Nuvoloso 11 5 66 1011 10 E/NE 7.4
Ieri h: 21:20 sereno Sereno 10 5 71 1011 10 E/NE 9.3
Ieri h: 20:50 sereno Sereno 11 3 57 1011 10 N 3.7
Ieri h: 20:20 sereno Sereno 12 2 50 1010 10 N 3.7
Ieri h: 19:50 sereno Sereno 13 1 43 1010 10 N 1.8
Ieri h: 19:20 sereno Sereno 12 1 46 1010 10 NE 11.1
Ieri h: 18:50 sereno Sereno 12 3 54 1010 10 NE 9.3
Ieri h: 18:20 sereno Sereno 14 1 41 1010 10 NE 9.3
Ieri h: 17:50 sereno Sereno 14 -1 35 1010 10 N 9.3
Ieri h: 17:20 sereno Sereno 15 -3 28 1010 10 N 13
Ieri h: 16:50 sereno Sereno 16 -1 31 1009 10 N 14.8
Ieri h: 16:20 sereno Sereno 16 0 33 1010 10 N 20.3
Ieri h: 15:50 sereno Sereno 17 2 36 1010 10 N 16.7
Ieri h: 15:20 sereno Sereno 18 2 34 1009 10 N 18.5
Ieri h: 14:50 poco_nuvoloso Poco Nuvoloso 18 5 42 1010 10 N 20.3
Ieri h: 14:20 poco_nuvoloso Poco Nuvoloso 17 7 51 1010 10 N 20.3
Ieri h: 13:50 sereno Sereno 17 7 51 1010 10 N 20.3